LHSM/SOB METAR and TAF weather

Enter ICAO airport designator
Station Type Date Time Source
LHSM METAR 2020/02/16 19:45 UTC NOAA

LHSM 161945Z AUTO 16007KT 9000 NSC 07/03 Q1024


Station Type Date Time Source
LHSM Decoded METAR 2020/02/16 19:45 UTC NOAA

Station name not available
Feb 16, 2020 - 02:45 PM EST / 2020.02.16 1945 UTC
Wind: from the SSE (160 degrees) at 8 MPH (7 KT):0
Visibility: 5 mile(s):0
Temperature: 44 F (7 C)
Dew Point: 37 F (3 C)
Relative Humidity: 75%
Pressure (altimeter): 30.24 in. Hg (1024 hPa)
ob: LHSM 161945Z AUTO 16007KT 9000 NSC 07/03 Q1024
cycle: 20

Station Type Date Time Source
LHSM TAF UTC NOAA

Error!

Example: see airport list